Time;durP1;ratioP1;P1;durP2;ratioP2;P2;SDS_P1;SDS_P2;PMS_P1;PMS_P2;Temp;Humidity;BMP_temperature;BMP_pressure;BME280_temperature;BME280_humidity;BME280_pressure;Samples;Min_cycle;Max_cycle;Signal;HPM_P1;HPM_P2
2021/09/16 00:01:44;;;;;;;15.23;4.37;;;13.90;99.90;;;;;;5069832;28;20200;-79
2021/09/16 00:04:11;;;;;;;12.60;4.87;;;13.90;99.90;;;;;;5070894;28;20317;-79
2021/09/16 00:06:38;;;;;;;14.10;4.47;;;13.90;99.90;;;;;;5057518;28;20207;-78
2021/09/16 00:09:05;;;;;;;12.27;4.63;;;13.90;99.90;;;;;;5083718;28;20573;-78
2021/09/16 00:11:33;;;;;;;12.07;4.70;;;13.90;99.90;;;;;;5072453;28;20204;-79
2021/09/16 00:14:00;;;;;;;10.40;4.90;;;13.90;99.90;;;;;;5076328;28;20200;-78
2021/09/16 00:16:27;;;;;;;17.50;4.80;;;13.90;99.90;;;;;;5076617;28;20214;-78
2021/09/16 00:18:54;;;;;;;10.13;4.93;;;13.90;99.90;;;;;;5072720;28;20234;-79
2021/09/16 00:21:21;;;;;;;9.40;4.60;;;13.80;99.90;;;;;;5073388;28;20308;-78
2021/09/16 00:23:48;;;;;;;15.67;4.97;;;13.80;99.90;;;;;;5072865;28;20230;-78
2021/09/16 00:26:14;;;;;;;19.57;5.13;;;13.80;99.90;;;;;;5072476;28;20292;-78
2021/09/16 00:28:43;;;;;;;13.97;5.17;;;13.80;99.90;;;;;;5072868;28;20298;-78
2021/09/16 00:31:10;;;;;;;10.67;4.90;;;13.80;99.90;;;;;;5072590;28;20358;-78
2021/09/16 00:33:36;;;;;;;16.10;4.70;;;13.80;99.90;;;;;;5072528;28;20246;-78
2021/09/16 00:36:04;;;;;;;10.70;5.10;;;13.80;99.90;;;;;;5072517;28;20207;-79
2021/09/16 00:38:31;;;;;;;13.30;5.57;;;13.80;99.90;;;;;;5072356;28;20225;-78
2021/09/16 00:40:58;;;;;;;14.53;5.90;;;13.80;99.90;;;;;;5071987;28;20294;-78
2021/09/16 00:43:25;;;;;;;11.30;5.23;;;13.80;99.90;;;;;;5072333;28;20215;-79
2021/09/16 00:46:01;;;;;;;14.00;6.07;;;13.80;99.90;;;;;;5072468;28;20652;-78
2021/09/16 00:48:28;;;;;;;11.23;5.63;;;13.80;99.90;;;;;;5072209;28;20205;-78
2021/09/16 00:50:54;;;;;;;12.00;5.70;;;13.80;99.90;;;;;;5072315;28;20239;-78
2021/09/16 00:53:21;;;;;;;12.60;5.50;;;13.80;99.90;;;;;;5071709;28;20208;-78
2021/09/16 00:55:50;;;;;;;14.53;6.40;;;13.80;99.90;;;;;;5072313;28;20219;-79
2021/09/16 00:58:18;;;;;;;16.20;6.67;;;13.80;99.90;;;;;;5068635;28;20218;-79
2021/09/16 01:00:47;;;;;;;16.00;6.40;;;13.80;99.90;;;;;;5072086;28;20208;-78
2021/09/16 01:03:15;;;;;;;17.33;7.03;;;13.80;99.90;;;;;;5070740;28;20699;-78
2021/09/16 01:05:42;;;;;;;19.70;8.00;;;13.80;99.90;;;;;;5071649;28;20286;-78
2021/09/16 01:08:09;;;;;;;26.53;10.67;;;13.70;99.90;;;;;;5071823;28;20199;-78
2021/09/16 01:10:36;;;;;;;13.60;7.23;;;13.70;99.90;;;;;;5071637;28;20210;-78
2021/09/16 01:13:03;;;;;;;16.37;8.40;;;13.70;99.90;;;;;;5071724;28;20230;-78
2021/09/16 01:15:30;;;;;;;17.63;7.67;;;13.70;99.90;;;;;;5071788;28;20204;-78
2021/09/16 01:17:57;;;;;;;26.60;8.10;;;13.70;99.90;;;;;;5071447;28;20298;-78
2021/09/16 01:20:25;;;;;;;16.43;7.30;;;13.70;99.90;;;;;;5071701;28;20230;-78
2021/09/16 01:22:55;;;;;;;17.67;7.10;;;13.70;99.90;;;;;;5071625;28;20268;-79
2021/09/16 01:25:26;;;;;;;18.70;7.43;;;13.70;99.90;;;;;;5071400;28;20746;-78
2021/09/16 01:27:54;;;;;;;20.40;7.57;;;13.70;99.90;;;;;;5072266;28;20204;-79
2021/09/16 01:30:21;;;;;;;23.60;7.67;;;13.60;99.90;;;;;;5071680;28;20257;-78
2021/09/16 01:32:48;;;;;;;15.43;6.97;;;13.60;99.90;;;;;;5071627;28;20222;-78
2021/09/16 01:35:15;;;;;;;18.27;6.33;;;13.60;99.90;;;;;;5071631;28;20203;-78
2021/09/16 01:37:42;;;;;;;11.97;6.00;;;13.50;99.90;;;;;;5071213;28;20203;-79
2021/09/16 01:40:12;;;;;;;12.93;6.30;;;13.50;99.90;;;;;;5071644;28;20258;-78
2021/09/16 01:42:41;;;;;;;15.63;6.53;;;13.50;99.90;;;;;;5071282;28;20668;-78
2021/09/16 01:45:13;;;;;;;13.03;6.03;;;13.50;99.90;;;;;;5071585;28;20280;-78
2021/09/16 01:47:39;;;;;;;11.37;5.60;;;13.60;99.90;;;;;;5058234;28;20195;-78
2021/09/16 01:50:07;;;;;;;12.77;5.27;;;13.60;99.90;;;;;;5071420;28;20233;-79
2021/09/16 01:52:34;;;;;;;11.10;4.77;;;13.50;99.90;;;;;;5069389;28;20295;-79
2021/09/16 01:55:01;;;;;;;16.97;5.27;;;13.60;99.90;;;;;;5069497;28;20200;-78
2021/09/16 01:57:29;;;;;;;9.03;4.73;;;13.60;99.90;;;;;;5066939;28;20580;-78
2021/09/16 01:59:56;;;;;;;11.43;4.73;;;13.60;99.90;;;;;;5069810;28;20547;-78
2021/09/16 02:02:22;;;;;;;9.23;4.13;;;13.70;99.90;;;;;;5066360;28;20200;-78
2021/09/16 02:04:49;;;;;;;14.17;4.00;;;13.80;99.90;;;;;;5069151;28;20230;-78
2021/09/16 02:07:16;;;;;;;7.47;4.20;;;13.90;99.90;;;;;;5069111;28;20213;-78
2021/09/16 02:09:43;;;;;;;9.87;3.63;;;14.00;99.90;;;;;;5071323;28;20298;-79
2021/09/16 02:12:11;;;;;;;12.63;3.67;;;14.10;99.90;;;;;;5070965;28;20660;-79
2021/09/16 02:14:39;;;;;;;7.27;3.43;;;14.10;99.90;;;;;;5074195;28;20250;-79
2021/09/16 02:17:06;;;;;;;9.17;3.80;;;14.10;99.90;;;;;;5074568;28;20214;-79
2021/09/16 02:19:33;;;;;;;8.00;3.53;;;14.20;99.90;;;;;;5074454;28;20203;-78
2021/09/16 02:21:59;;;;;;;8.90;3.63;;;14.20;99.90;;;;;;5074794;28;20299;-78
2021/09/16 02:24:26;;;;;;;7.97;3.20;;;14.20;99.90;;;;;;5074719;28;20223;-78
2021/09/16 02:26:53;;;;;;;8.47;3.10;;;14.20;99.90;;;;;;5074583;28;20205;-79
2021/09/16 02:29:20;;;;;;;7.17;3.10;;;14.20;99.90;;;;;;5074642;28;20204;-79
2021/09/16 02:31:48;;;;;;;7.70;3.00;;;14.10;99.90;;;;;;5074262;28;20652;-78
2021/09/16 02:34:15;;;;;;;7.63;3.20;;;14.10;99.90;;;;;;5074512;28;20208;-79
2021/09/16 02:36:42;;;;;;;5.77;2.90;;;14.00;99.90;;;;;;5074484;28;20207;-78
2021/09/16 02:39:09;;;;;;;7.93;2.70;;;14.10;99.90;;;;;;5074680;28;20571;-78
2021/09/16 02:41:36;;;;;;;9.27;3.27;;;14.20;99.90;;;;;;5074137;28;20602;-78
2021/09/16 02:44:03;;;;;;;12.23;2.97;;;14.20;99.90;;;;;;5074182;28;20223;-79
2021/09/16 02:46:30;;;;;;;9.70;3.00;;;14.10;99.90;;;;;;5074510;28;20293;-78
2021/09/16 02:48:58;;;;;;;5.37;2.63;;;14.10;99.90;;;;;;5074442;28;20223;-78
2021/09/16 02:51:25;;;;;;;7.70;3.47;;;14.00;99.90;;;;;;5074403;28;20731;-79
2021/09/16 02:53:51;;;;;;;9.37;3.37;;;14.00;99.90;;;;;;5074333;28;20206;-78
2021/09/16 02:56:18;;;;;;;7.30;2.97;;;14.00;99.90;;;;;;5074328;28;20674;-78
2021/09/16 02:58:45;;;;;;;10.80;3.40;;;13.90;99.90;;;;;;5074110;28;20232;-78
2021/09/16 03:01:12;;;;;;;7.87;3.67;;;13.90;99.90;;;;;;5074357;28;20210;-79
2021/09/16 03:03:39;;;;;;;7.90;3.70;;;13.90;99.90;;;;;;5073798;28;20207;-79
2021/09/16 03:06:07;;;;;;;8.10;3.13;;;13.80;99.90;;;;;;5073902;28;20215;-78
2021/09/16 03:08:34;;;;;;;7.70;3.27;;;13.80;99.90;;;;;;5068501;28;20215;-79
2021/09/16 03:11:00;;;;;;;9.53;3.30;;;13.80;99.90;;;;;;5058940;28;20654;-79
2021/09/16 03:13:27;;;;;;;7.20;3.40;;;13.80;99.90;;;;;;5068973;28;20203;-79
2021/09/16 03:15:54;;;;;;;8.77;4.00;;;13.80;99.90;;;;;;5057686;28;20212;-79
2021/09/16 03:18:21;;;;;;;4.67;3.40;;;13.80;99.90;;;;;;5057132;28;20210;-79
2021/09/16 03:20:48;;;;;;;7.53;3.87;;;13.70;99.90;;;;;;5067343;28;20295;-79
2021/09/16 03:23:16;;;;;;;8.07;3.43;;;13.70;99.90;;;;;;5064415;28;20207;-79
2021/09/16 03:25:43;;;;;;;7.20;3.73;;;13.70;99.90;;;;;;5057203;28;20310;-79
2021/09/16 03:28:09;;;;;;;10.03;3.73;;;13.70;99.90;;;;;;5059807;28;20735;-79
2021/09/16 03:30:36;;;;;;;8.63;3.60;;;13.80;99.90;;;;;;5058138;28;20202;-79
2021/09/16 03:33:03;;;;;;;6.77;3.50;;;13.70;99.90;;;;;;5058392;28;20331;-79
2021/09/16 03:35:30;;;;;;;9.47;4.40;;;13.60;99.90;;;;;;5059585;28;20677;-79
2021/09/16 03:37:57;;;;;;;10.20;3.97;;;13.60;99.90;;;;;;5057262;28;20205;-79
2021/09/16 03:40:25;;;;;;;8.13;4.00;;;13.60;99.90;;;;;;5061063;28;20548;-78
2021/09/16 03:42:52;;;;;;;12.83;4.30;;;13.50;99.90;;;;;;5056720;28;20720;-79
2021/09/16 03:45:20;;;;;;;7.43;3.60;;;13.50;99.90;;;;;;5060225;28;20225;-78
2021/09/16 03:47:46;;;;;;;7.00;4.00;;;13.60;99.90;;;;;;5057174;28;20295;-79
2021/09/16 03:50:14;;;;;;;8.80;4.17;;;13.70;99.90;;;;;;5063303;28;20290;-79
2021/09/16 03:52:41;;;;;;;7.47;3.80;;;13.80;99.90;;;;;;5066094;28;20297;-78
2021/09/16 03:55:08;;;;;;;8.30;4.50;;;13.80;99.90;;;;;;5061785;28;20294;-78
2021/09/16 03:57:36;;;;;;;10.37;4.50;;;13.70;99.90;;;;;;5066527;28;20591;-78
2021/09/16 04:00:06;;;;;;;13.13;4.80;;;13.80;99.90;;;;;;5061255;28;20207;-78
2021/09/16 04:02:33;;;;;;;11.20;4.40;;;13.70;99.90;;;;;;5058720;28;20677;-78
2021/09/16 04:05:00;;;;;;;17.20;5.20;;;13.70;99.90;;;;;;5062091;28;20220;-79
2021/09/16 04:07:27;;;;;;;10.73;4.40;;;13.80;99.90;;;;;;5070962;28;20288;-78
2021/09/16 04:09:53;;;;;;;14.83;4.23;;;13.80;99.90;;;;;;5072481;28;20203;-79
2021/09/16 04:12:20;;;;;;;11.40;5.00;;;13.80;99.90;;;;;;5072403;28;20207;-79
2021/09/16 04:14:49;;;;;;;12.93;5.10;;;13.90;99.90;;;;;;5072428;28;20636;-79
2021/09/16 04:17:16;;;;;;;9.13;5.80;;;14.00;99.90;;;;;;5064418;28;20604;-79
2021/09/16 04:19:42;;;;;;;14.20;5.30;;;14.00;99.90;;;;;;5060490;28;20214;-79
2021/09/16 04:22:09;;;;;;;12.00;5.97;;;14.10;99.90;;;;;;5061215;28;20250;-79
2021/09/16 04:24:36;;;;;;;12.07;6.07;;;14.20;99.90;;;;;;5059919;28;20315;-78
2021/09/16 04:27:04;;;;;;;16.40;6.83;;;14.20;99.90;;;;;;5058222;28;20214;-79
2021/09/16 04:29:31;;;;;;;17.07;7.40;;;14.20;99.90;;;;;;5056344;28;20211;-78
2021/09/16 04:31:59;;;;;;;13.37;6.70;;;14.20;99.90;;;;;;5055702;28;20574;-79
2021/09/16 04:34:26;;;;;;;15.97;7.43;;;14.30;99.90;;;;;;5055738;28;20742;-79
2021/09/16 04:36:52;;;;;;;12.27;6.77;;;14.30;99.90;;;;;;5059634;28;20295;-79
2021/09/16 04:39:19;;;;;;;14.23;7.27;;;14.40;99.90;;;;;;5060669;28;20295;-79
2021/09/16 04:41:46;;;;;;;14.93;7.20;;;14.50;99.90;;;;;;5065913;28;20282;-79
2021/09/16 04:44:13;;;;;;;21.70;7.50;;;14.40;99.90;;;;;;5060276;28;20679;-78
2021/09/16 04:46:40;;;;;;;14.57;7.37;;;14.40;99.90;;;;;;5057737;28;20236;-79
2021/09/16 04:49:08;;;;;;;15.07;6.70;;;14.30;99.90;;;;;;5051985;28;20288;-80
2021/09/16 04:51:35;;;;;;;13.17;6.70;;;14.40;99.90;;;;;;5050461;28;20257;-80
2021/09/16 04:54:02;;;;;;;15.43;7.00;;;14.40;99.90;;;;;;5052329;28;20203;-80
2021/09/16 04:56:29;;;;;;;14.23;7.10;;;14.40;99.90;;;;;;5052092;28;20673;-80
2021/09/16 04:58:56;;;;;;;15.73;6.87;;;14.30;99.90;;;;;;5052323;28;20728;-80
2021/09/16 05:01:22;;;;;;;14.97;6.57;;;14.30;99.90;;;;;;5052316;28;20195;-80
2021/09/16 05:03:49;;;;;;;12.90;7.17;;;14.30;99.90;;;;;;5052321;28;20207;-80
2021/09/16 05:06:18;;;;;;;14.50;7.37;;;14.40;99.90;;;;;;5052038;28;20667;-81
2021/09/16 05:08:45;;;;;;;17.93;7.47;;;14.40;99.90;;;;;;5052300;28;20206;-78
2021/09/16 05:11:13;;;;;;;13.33;6.80;;;14.50;99.90;;;;;;5052325;28;20210;-79
2021/09/16 05:13:40;;;;;;;15.97;7.40;;;14.60;99.90;;;;;;5071277;28;20294;-79
2021/09/16 05:16:07;;;;;;;13.40;6.50;;;14.60;99.90;;;;;;5070670;28;20628;-79
2021/09/16 05:18:34;;;;;;;19.33;6.57;;;14.70;99.90;;;;;;5071019;28;20206;-79
2021/09/16 05:21:01;;;;;;;12.00;6.60;;;14.70;99.90;;;;;;5072332;28;20286;-79
2021/09/16 05:23:30;;;;;;;13.67;6.80;;;14.70;99.90;;;;;;5070434;28;20233;-79
2021/09/16 05:25:58;;;;;;;16.57;6.40;;;14.80;99.90;;;;;;5061135;28;20269;-79
2021/09/16 05:28:26;;;;;;;12.90;6.83;;;14.90;99.90;;;;;;5051375;28;20623;-79
2021/09/16 05:30:53;;;;;;;17.20;6.80;;;14.80;99.90;;;;;;5070016;28;20217;-78
2021/09/16 05:33:21;;;;;;;17.10;7.30;;;14.90;99.90;;;;;;5070710;28;20724;-80
2021/09/16 05:35:48;;;;;;;15.07;6.60;;;14.80;99.90;;;;;;5070960;28;20278;-79
2021/09/16 05:38:15;;;;;;;20.23;7.80;;;14.90;99.90;;;;;;5071153;28;20207;-79
2021/09/16 05:40:44;;;;;;;12.63;6.73;;;14.90;99.90;;;;;;5071248;28;20223;-80
2021/09/16 05:43:14;;;;;;;15.53;7.47;;;15.00;99.90;;;;;;5070401;28;20207;-79
2021/09/16 05:45:41;;;;;;;18.23;8.00;;;15.00;99.90;;;;;;5070521;28;20223;-80
2021/09/16 05:48:09;;;;;;;20.47;8.23;;;15.10;99.90;;;;;;5071989;28;20199;-80
2021/09/16 05:50:36;;;;;;;21.10;8.93;;;15.10;99.90;;;;;;5073862;28;20203;-81
2021/09/16 05:53:03;;;;;;;16.20;7.67;;;15.10;99.90;;;;;;5074507;28;20290;-82
2021/09/16 05:55:31;;;;;;;18.33;7.80;;;15.10;99.90;;;;;;5073253;28;20287;-80
2021/09/16 05:57:59;;;;;;;20.90;8.87;;;15.20;99.90;;;;;;5073514;28;20294;-80
2021/09/16 06:00:29;;;;;;;18.13;8.53;;;15.10;99.90;;;;;;5073689;28;20204;-81
2021/09/16 06:02:56;;;;;;;18.03;8.20;;;15.20;99.90;;;;;;5074707;28;20196;-81
2021/09/16 06:05:23;;;;;;;13.47;8.37;;;15.30;99.90;;;;;;5074939;28;20218;-81
2021/09/16 06:07:50;;;;;;;17.63;8.67;;;15.40;99.90;;;;;;5074726;28;20195;-80
2021/09/16 06:10:17;;;;;;;16.73;9.07;;;15.40;99.90;;;;;;5075326;28;20202;-82
2021/09/16 06:12:45;;;;;;;19.40;9.07;;;15.40;99.90;;;;;;5074757;28;20253;-81
2021/09/16 06:15:13;;;;;;;20.53;9.53;;;15.50;99.90;;;;;;5075148;28;20704;-82
2021/09/16 06:17:41;;;;;;;24.30;10.70;;;15.60;99.90;;;;;;5074696;28;20222;-81
2021/09/16 06:20:09;;;;;;;27.73;10.60;;;15.70;99.90;;;;;;5075128;28;20207;-81
2021/09/16 06:22:37;;;;;;;23.87;10.73;;;15.70;99.90;;;;;;5074970;28;20290;-81
2021/09/16 06:25:06;;;;;;;21.33;10.60;;;15.80;99.90;;;;;;5086932;28;20199;-82
2021/09/16 06:27:33;;;;;;;21.87;10.73;;;15.80;99.90;;;;;;5074292;28;20215;-80
2021/09/16 06:30:00;;;;;;;29.00;14.00;;;16.00;99.90;;;;;;5074642;28;20322;-81
2021/09/16 06:32:29;;;;;;;21.57;13.07;;;16.10;99.90;;;;;;5074558;28;20250;-82
2021/09/16 06:34:56;;;;;;;27.27;12.50;;;16.10;99.90;;;;;;5074347;28;20278;-81
2021/09/16 06:37:23;;;;;;;19.13;11.37;;;16.20;99.90;;;;;;5074481;28;20689;-81
2021/09/16 06:39:50;;;;;;;22.67;12.13;;;16.30;99.90;;;;;;5074273;28;20200;-80
2021/09/16 06:42:18;;;;;;;21.73;10.67;;;16.40;99.90;;;;;;5074432;28;20694;-80
2021/09/16 06:44:45;;;;;;;19.83;11.77;;;16.50;99.90;;;;;;5074413;28;20210;-81
2021/09/16 06:47:12;;;;;;;22.50;12.30;;;16.60;99.90;;;;;;5074290;28;20233;-81
2021/09/16 06:49:45;;;;;;;21.20;12.17;;;16.70;99.90;;;;;;5074331;28;20210;-81
2021/09/16 06:52:12;;;;;;;22.20;12.00;;;16.80;99.90;;;;;;5074220;28;20211;-81
2021/09/16 06:54:40;;;;;;;20.83;11.60;;;16.80;99.90;;;;;;5074180;28;20290;-81
2021/09/16 06:57:07;;;;;;;26.07;13.13;;;16.90;99.90;;;;;;5074532;28;20195;-80
2021/09/16 06:59:34;;;;;;;22.80;12.40;;;16.80;99.90;;;;;;5073025;28;20717;-81
2021/09/16 07:02:01;;;;;;;24.93;13.13;;;16.60;99.90;;;;;;5074351;28;20286;-80
2021/09/16 07:04:29;;;;;;;25.37;13.57;;;16.50;99.90;;;;;;5074146;28;20210;-81
2021/09/16 07:07:03;;;;;;;26.03;13.43;;;16.40;99.90;;;;;;5073814;28;20235;-80
2021/09/16 07:09:30;;;;;;;24.73;14.60;;;16.50;99.90;;;;;;5074089;28;20651;-81
2021/09/16 07:11:57;;;;;;;32.90;15.70;;;16.40;99.90;;;;;;5073785;28;20295;-81
2021/09/16 07:14:26;;;;;;;27.00;15.00;;;16.50;99.90;;;;;;5073735;28;20283;-81
2021/09/16 07:16:53;;;;;;;33.10;16.10;;;16.50;99.90;;;;;;5073756;28;20561;-81
2021/09/16 07:19:21;;;;;;;32.03;16.40;;;16.50;99.90;;;;;;5073802;28;20203;-81
2021/09/16 07:21:48;;;;;;;30.27;16.33;;;16.70;99.90;;;;;;5073633;28;20202;-80
2021/09/16 07:24:16;;;;;;;30.47;15.13;;;16.90;99.90;;;;;;5073654;28;20671;-82
2021/09/16 07:26:49;;;;;;;25.23;15.20;;;17.10;99.90;;;;;;5073516;28;20820;-82
2021/09/16 07:29:17;;;;;;;24.57;13.70;;;17.20;99.90;;;;;;5073843;28;20195;-81
2021/09/16 07:31:45;;;;;;;22.77;14.17;;;17.50;99.90;;;;;;5073495;28;20564;-81
2021/09/16 07:34:12;;;;;;;25.90;14.60;;;17.70;99.90;;;;;;5073578;28;20215;-81
2021/09/16 07:36:40;;;;;;;27.20;14.50;;;17.80;99.90;;;;;;5073274;28;20309;-81
2021/09/16 07:39:07;;;;;;;25.43;15.20;;;17.70;99.90;;;;;;5073517;28;20207;-81
2021/09/16 07:41:36;;;;;;;30.30;16.80;;;17.60;99.90;;;;;;5073116;28;20306;-81
2021/09/16 07:44:04;;;;;;;23.93;14.80;;;17.60;99.90;;;;;;5073269;28;20286;-81
2021/09/16 07:46:31;;;;;;;27.13;14.77;;;17.50;99.90;;;;;;5073235;28;20330;-80
2021/09/16 07:48:59;;;;;;;30.57;16.13;;;17.50;99.90;;;;;;5073103;28;20298;-81
2021/09/16 07:51:26;;;;;;;26.97;14.13;;;17.70;99.90;;;;;;5073481;28;20203;-81
2021/09/16 07:53:54;;;;;;;25.67;14.57;;;18.10;99.90;;;;;;5072955;28;20299;-81
2021/09/16 07:56:21;;;;;;;24.50;14.00;;;18.40;99.90;;;;;;5070695;28;20207;-82
2021/09/16 07:58:50;;;;;;;26.17;14.87;;;18.50;99.90;;;;;;5072745;28;20221;-81
2021/09/16 08:01:18;;;;;;;25.43;14.37;;;18.70;99.90;;;;;;5071854;28;20286;-84
2021/09/16 08:03:45;;;;;;;25.00;15.27;;;18.90;99.90;;;;;;5053104;28;20207;-81
2021/09/16 08:06:12;;;;;;;24.77;14.57;;;18.70;99.90;;;;;;5053006;28;20313;-81
2021/09/16 08:08:42;;;;;;;22.07;14.47;;;18.60;99.90;;;;;;5067506;28;20202;-80
2021/09/16 08:11:09;;;;;;;30.97;14.23;;;18.60;99.90;;;;;;5072843;28;20187;-78
2021/09/16 08:13:37;;;;;;;25.70;15.73;;;18.60;99.90;;;;;;5072906;28;20286;-80
2021/09/16 08:16:07;;;;;;;25.60;14.47;;;18.50;99.90;;;;;;5072624;28;20286;-81
2021/09/16 08:18:34;;;;;;;28.27;15.13;;;18.40;99.90;;;;;;5072461;28;20733;-80
2021/09/16 08:21:01;;;;;;;26.47;15.13;;;18.30;99.90;;;;;;5072525;28;20286;-81
2021/09/16 08:23:29;;;;;;;24.00;14.37;;;18.30;99.90;;;;;;5072843;28;20257;-82
2021/09/16 08:25:56;;;;;;;26.47;15.20;;;18.30;99.90;;;;;;5072496;28;20246;-81
2021/09/16 08:28:23;;;;;;;27.83;14.07;;;18.30;99.90;;;;;;5072131;28;20195;-78
2021/09/16 08:30:50;;;;;;;30.20;14.87;;;18.40;99.90;;;;;;5072635;28;20282;-81
2021/09/16 08:33:20;;;;;;;22.50;14.27;;;18.50;99.90;;;;;;5072179;28;20294;-81
2021/09/16 08:35:48;;;;;;;23.40;14.40;;;18.60;99.90;;;;;;5072369;28;20210;-82
2021/09/16 08:38:15;;;;;;;26.07;13.90;;;18.80;99.90;;;;;;5071330;28;20210;-80
2021/09/16 08:40:43;;;;;;;22.00;13.13;;;18.90;99.90;;;;;;5070962;28;20590;-82
2021/09/16 08:43:10;;;;;;;23.57;14.13;;;19.20;99.90;;;;;;5068500;28;20636;-81
2021/09/16 08:45:38;;;;;;;19.93;12.93;;;19.20;99.90;;;;;;5071798;28;20195;-81
2021/09/16 08:48:05;;;;;;;24.57;13.57;;;19.00;99.90;;;;;;5071792;28;20694;-81
2021/09/16 08:50:34;;;;;;;22.63;13.30;;;19.00;99.90;;;;;;5072043;28;20203;-81
2021/09/16 08:53:01;;;;;;;21.90;13.23;;;19.00;99.90;;;;;;5071815;28;20291;-81
2021/09/16 08:55:28;;;;;;;21.93;12.93;;;19.10;99.90;;;;;;5071723;28;20201;-81
2021/09/16 08:57:58;;;;;;;18.90;12.13;;;19.10;99.90;;;;;;5071773;28;20266;-82
2021/09/16 09:00:26;;;;;;;20.97;12.33;;;19.20;99.90;;;;;;5090561;28;20238;-83
2021/09/16 09:02:55;;;;;;;19.83;11.97;;;19.20;99.90;;;;;;5091241;28;20198;-82
2021/09/16 09:05:23;;;;;;;19.73;11.87;;;19.30;99.90;;;;;;5091514;28;21012;-83
2021/09/16 09:07:53;;;;;;;19.13;11.33;;;19.40;99.90;;;;;;5091503;28;20226;-82
2021/09/16 09:10:36;;;;;;;19.07;11.67;;;19.50;99.90;;;;;;5079504;28;20187;-82
2021/09/16 09:13:04;;;;;;;22.03;12.50;;;19.80;99.90;;;;;;5072746;28;20648;-85
2021/09/16 09:15:32;;;;;;;19.27;10.83;;;20.00;99.90;;;;;;5075803;28;20207;-88
2021/09/16 09:18:08;;;;;;;16.20;11.37;;;20.00;99.90;;;;;;5073825;28;20199;-86
2021/09/16 09:20:57;;;;;;;19.07;12.00;;;20.10;99.90;;;;;;5073999;28;20207;-86
2021/09/16 09:23:29;;;;;;;13.77;9.93;;;20.30;99.90;;;;;;5072622;28;20715;-88
2021/09/16 09:25:56;;;;;;;15.13;9.63;;;20.50;99.90;;;;;;5075584;28;20195;-88
2021/09/16 09:28:29;;;;;;;12.10;8.30;;;20.50;99.90;;;;;;5077646;28;20590;-86
2021/09/16 09:30:56;;;;;;;14.93;7.97;;;20.40;99.90;;;;;;5079293;28;20199;-85
2021/09/16 09:33:33;;;;;;;11.27;7.83;;;20.50;99.90;;;;;;5086321;28;20285;-85
2021/09/16 09:36:09;;;;;;;12.77;8.50;;;20.60;99.90;;;;;;5085778;28;20680;-86
2021/09/16 09:38:51;;;;;;;11.67;7.73;;;20.80;99.90;;;;;;5071576;28;20225;-84
2021/09/16 09:41:35;;;;;;;11.40;8.07;;;21.30;99.90;;;;;;5086809;28;20184;-87
2021/09/16 09:44:10;;;;;;;10.93;7.93;;;22.00;99.90;;;;;;5081810;28;20285;-86
2021/09/16 09:46:47;;;;;;;11.82;7.80;;;22.70;99.90;;;;;;5086076;28;20218;-84
2021/09/16 09:49:16;;;;;;;12.02;7.97;;;23.20;99.90;;;;;;5085169;28;20195;-85
2021/09/16 09:51:48;;;;;;;11.65;7.68;;;24.00;99.90;;;;;;5080088;28;20568;-85
2021/09/16 09:54:30;;;;;;;8.27;6.10;;;24.40;99.90;;;;;;5084550;28;20607;-89
2021/09/16 09:57:00;;;;;;;10.13;6.13;;;25.20;99.90;;;;;;5087428;28;20285;-85
2021/09/16 09:59:29;;;;;;;9.32;6.90;;;26.30;99.90;;;;;;5086612;28;20298;-83
2021/09/16 10:02:04;;;;;;;14.77;7.45;;;26.80;99.90;;;;;;5082419;28;20295;-83
2021/09/16 10:04:32;;;;;;;7.55;5.22;;;27.40;99.90;;;;;;5073947;28;20187;-88
2021/09/16 10:07:00;;;;;;;8.48;5.70;;;28.00;99.90;;;;;;5068811;28;20281;-85
2021/09/16 10:09:29;;;;;;;7.57;5.82;;;26.90;99.90;;;;;;5078173;28;20203;-84
2021/09/16 10:11:58;;;;;;;6.63;4.43;;;27.10;99.90;;;;;;5071049;28;20200;-85
2021/09/16 10:14:26;;;;;;;5.43;4.28;;;27.90;99.90;;;;;;5081157;28;20195;-84
2021/09/16 10:16:53;;;;;;;6.60;4.75;;;27.90;99.90;;;;;;5076197;28;20241;-85
2021/09/16 10:19:20;;;;;;;6.97;3.88;;;28.70;99.90;;;;;;5074899;28;20283;-84
2021/09/16 10:21:48;;;;;;;6.25;4.00;;;29.20;99.90;;;;;;5072754;28;20283;-84
2021/09/16 10:24:17;;;;;;;9.07;4.32;;;28.80;99.90;;;;;;5059638;28;20282;-86
2021/09/16 10:26:49;;;;;;;4.45;3.83;;;28.60;99.90;;;;;;5075730;28;20222;-85
2021/09/16 10:29:37;;;;;;;4.70;3.60;;;28.80;99.90;;;;;;5075509;28;20238;-84
2021/09/16 10:32:36;;;;;;;5.15;3.60;;;28.30;99.90;;;;;;5075819;28;20283;-86
2021/09/16 10:35:17;;;;;;;4.88;3.80;;;28.90;99.90;;;;;;5070840;28;20211;-87
2021/09/16 10:37:46;;;;;;;5.65;4.55;;;28.60;99.90;;;;;;5071996;28;20200;-86
2021/09/16 10:40:23;;;;;;;5.90;3.90;;;28.50;99.90;;;;;;5075618;28;20541;-85
2021/09/16 10:42:53;;;;;;;5.97;4.13;;;28.70;99.90;;;;;;5075538;28;20279;-85
2021/09/16 10:45:36;;;;;;;5.72;3.90;;;28.90;99.90;;;;;;5075236;28;20286;-86
2021/09/16 10:48:27;;;;;;;6.13;4.28;;;28.40;99.90;;;;;;5074605;28;20252;-83
2021/09/16 10:50:57;;;;;;;6.70;4.88;;;28.60;99.90;;;;;;5074983;28;20208;-86
2021/09/16 10:53:37;;;;;;;7.70;4.60;;;29.20;99.90;;;;;;5071194;28;20282;-85
2021/09/16 10:56:05;;;;;;;8.48;4.78;;;29.60;99.90;;;;;;5075129;28;20743;-82
2021/09/16 10:58:34;;;;;;;10.30;5.22;;;28.80;99.90;;;;;;5075125;28;20198;-85
2021/09/16 11:01:01;;;;;;;8.55;5.07;;;28.80;99.90;;;;;;5071761;28;20651;-86
2021/09/16 11:03:28;;;;;;;6.10;4.53;;;28.60;99.90;;;;;;5065460;28;20275;-81
2021/09/16 11:06:00;;;;;;;6.88;4.63;;;29.40;99.90;;;;;;5073170;28;20278;-80
2021/09/16 11:09:02;;;;;;;7.55;5.18;;;29.60;99.90;;;;;;5069438;28;20219;-80
2021/09/16 11:11:53;;;;;;;6.75;4.70;;;29.70;99.90;;;;;;5067802;28;20257;-81
2021/09/16 11:14:33;;;;;;;7.05;5.07;;;28.70;99.90;;;;;;5064417;28;20619;-81
2021/09/16 11:17:01;;;;;;;7.93;5.10;;;28.00;99.90;;;;;;5065244;28;20210;-79
2021/09/16 11:19:28;;;;;;;6.57;4.93;;;28.00;99.90;;;;;;5067343;28;20290;-80
2021/09/16 11:22:07;;;;;;;8.13;5.78;;;28.40;99.90;;;;;;5069996;28;20288;-80
2021/09/16 11:24:37;;;;;;;7.22;5.43;;;28.50;99.90;;;;;;5060409;28;20195;-80
2021/09/16 11:27:05;;;;;;;8.05;6.20;;;28.10;99.90;;;;;;5073630;28;20208;-80
2021/09/16 11:29:42;;;;;;;9.23;5.32;;;26.00;99.90;;;;;;5067068;28;20290;-81
2021/09/16 11:32:10;;;;;;;6.25;4.68;;;26.60;99.90;;;;;;5070669;28;20627;-80
2021/09/16 11:34:38;;;;;;;8.15;5.25;;;26.30;99.90;;;;;;5071328;28;20706;-79
2021/09/16 11:37:18;;;;;;;8.13;6.28;;;25.40;99.90;;;;;;5071976;28;20207;-80
2021/09/16 11:39:56;;;;;;;8.00;5.95;;;24.70;99.90;;;;;;5072865;28;20206;-80
2021/09/16 11:42:23;;;;;;;10.68;7.13;;;24.80;99.90;;;;;;5069477;28;20199;-80
2021/09/16 11:45:23;;;;;;;9.90;6.45;;;25.20;99.90;;;;;;5073689;28;20670;-80
2021/09/16 11:47:52;;;;;;;8.77;5.43;;;25.60;99.90;;;;;;5062473;28;20277;-80
2021/09/16 11:50:27;;;;;;;6.75;4.70;;;26.30;99.90;;;;;;5066071;28;20294;-81
2021/09/16 11:52:56;;;;;;;5.45;4.45;;;26.70;99.90;;;;;;5068633;28;20278;-80
2021/09/16 11:55:24;;;;;;;4.80;4.18;;;26.30;99.90;;;;;;5067632;28;20199;-80
2021/09/16 11:58:03;;;;;;;6.45;4.60;;;26.30;99.90;;;;;;5071851;28;20558;-80
2021/09/16 12:00:35;;;;;;;5.38;4.72;;;26.80;99.90;;;;;;5073305;28;20192;-80
2021/09/16 12:03:04;;;;;;;6.68;4.90;;;26.70;99.90;;;;;;5071594;28;20219;-80
2021/09/16 12:05:43;;;;;;;7.60;5.13;;;27.10;99.90;;;;;;5070865;28;20199;-80
2021/09/16 12:08:12;;;;;;;6.63;4.65;;;27.40;99.90;;;;;;5071136;28;20654;-80
2021/09/16 12:10:49;;;;;;;6.25;4.80;;;27.70;99.90;;;;;;5072799;28;20278;-82
2021/09/16 12:13:19;;;;;;;6.53;5.10;;;27.70;99.90;;;;;;5078318;28;20237;-80
2021/09/16 12:15:51;;;;;;;8.43;5.50;;;27.50;99.90;;;;;;5072422;28;20291;-79
2021/09/16 12:18:19;;;;;;;8.82;5.43;;;27.00;99.90;;;;;;5072806;28;20214;-80
2021/09/16 12:20:47;;;;;;;5.57;4.70;;;26.90;99.90;;;;;;5072768;28;20196;-80
2021/09/16 12:23:16;;;;;;;5.80;5.07;;;26.80;99.90;;;;;;5069141;28;20652;-81
2021/09/16 12:25:50;;;;;;;7.90;5.47;;;27.30;99.90;;;;;;5073862;28;20294;-80
2021/09/16 12:28:18;;;;;;;10.75;5.85;;;27.40;99.90;;;;;;5072118;28;20226;-81
2021/09/16 12:30:47;;;;;;;7.93;5.07;;;27.30;99.90;;;;;;5072468;28;20199;-80
2021/09/16 12:33:38;;;;;;;5.45;4.93;;;26.30;99.90;;;;;;5072022;28;20207;-79
2021/09/16 12:36:14;;;;;;;6.78;4.70;;;24.30;99.90;;;;;;5071360;28;20206;-79
2021/09/16 12:38:44;;;;;;;6.50;4.50;;;23.80;99.90;;;;;;5070541;28;20274;-79
2021/09/16 12:41:25;;;;;;;6.18;4.90;;;23.80;99.90;;;;;;5072512;28;20230;-79
2021/09/16 12:43:59;;;;;;;7.43;5.55;;;24.60;99.90;;;;;;5056179;28;20315;-81
2021/09/16 12:46:29;;;;;;;7.38;4.63;;;25.10;99.90;;;;;;5069939;28;20612;-79
2021/09/16 12:48:56;;;;;;;6.30;5.28;;;25.20;99.90;;;;;;5065993;28;20231;-80